sensor_id;sensor_type;location;lat;lon;timestamp;P1;durP1;ratioP1;P2;durP2;ratioP2
4309;SDS011;2168;53.576;9.980;2023-04-06T00:01:35;0.40;;;0.40;;
4309;SDS011;2168;53.576;9.980;2023-04-06T00:04:00;0.40;;;0.40;;
4309;SDS011;2168;53.576;9.980;2023-04-06T00:06:25;0.40;;;0.40;;
4309;SDS011;2168;53.576;9.980;2023-04-06T00:08:51;0.40;;;0.40;;
4309;SDS011;2168;53.576;9.980;2023-04-06T00:11:17;0.50;;;0.50;;
4309;SDS011;2168;53.576;9.980;2023-04-06T00:13:42;0.40;;;0.40;;
4309;SDS011;2168;53.576;9.980;2023-04-06T00:16:07;0.30;;;0.30;;
4309;SDS011;2168;53.576;9.980;2023-04-06T00:18:33;0.30;;;0.30;;
4309;SDS011;2168;53.576;9.980;2023-04-06T00:20:58;0.40;;;0.40;;
4309;SDS011;2168;53.576;9.980;2023-04-06T00:23:23;0.40;;;0.40;;
4309;SDS011;2168;53.576;9.980;2023-04-06T00:25:48;0.30;;;0.30;;
4309;SDS011;2168;53.576;9.980;2023-04-06T00:28:13;0.37;;;0.37;;
4309;SDS011;2168;53.576;9.980;2023-04-06T00:30:40;0.40;;;0.40;;
4309;SDS011;2168;53.576;9.980;2023-04-06T00:33:05;0.40;;;0.40;;
4309;SDS011;2168;53.576;9.980;2023-04-06T00:35:31;0.30;;;0.30;;
4309;SDS011;2168;53.576;9.980;2023-04-06T00:37:56;0.30;;;0.30;;
4309;SDS011;2168;53.576;9.980;2023-04-06T00:40:21;0.30;;;0.30;;
4309;SDS011;2168;53.576;9.980;2023-04-06T00:42:46;0.30;;;0.30;;
4309;SDS011;2168;53.576;9.980;2023-04-06T00:45:12;0.30;;;0.30;;
4309;SDS011;2168;53.576;9.980;2023-04-06T00:47:37;0.30;;;0.30;;
4309;SDS011;2168;53.576;9.980;2023-04-06T00:50:02;0.30;;;0.30;;
4309;SDS011;2168;53.576;9.980;2023-04-06T00:52:28;0.30;;;0.30;;
4309;SDS011;2168;53.576;9.980;2023-04-06T00:54:53;0.30;;;0.30;;
4309;SDS011;2168;53.576;9.980;2023-04-06T00:57:18;0.37;;;0.37;;
4309;SDS011;2168;53.576;9.980;2023-04-06T00:59:44;0.30;;;0.30;;
4309;SDS011;2168;53.576;9.980;2023-04-06T01:02:09;0.30;;;0.30;;
4309;SDS011;2168;53.576;9.980;2023-04-06T01:04:35;0.30;;;0.30;;
4309;SDS011;2168;53.576;9.980;2023-04-06T01:07:00;0.30;;;0.30;;
4309;SDS011;2168;53.576;9.980;2023-04-06T01:09:27;0.30;;;0.30;;
4309;SDS011;2168;53.576;9.980;2023-04-06T01:11:52;0.30;;;0.30;;
4309;SDS011;2168;53.576;9.980;2023-04-06T01:14:17;0.30;;;0.30;;
4309;SDS011;2168;53.576;9.980;2023-04-06T01:16:43;0.30;;;0.30;;
4309;SDS011;2168;53.576;9.980;2023-04-06T01:19:08;0.30;;;0.30;;
4309;SDS011;2168;53.576;9.980;2023-04-06T01:21:34;0.27;;;0.27;;
4309;SDS011;2168;53.576;9.980;2023-04-06T01:23:59;0.20;;;0.20;;
4309;SDS011;2168;53.576;9.980;2023-04-06T01:26:25;0.10;;;0.10;;
4309;SDS011;2168;53.576;9.980;2023-04-06T01:28:51;0.20;;;0.20;;
4309;SDS011;2168;53.576;9.980;2023-04-06T01:31:17;0.30;;;0.30;;
4309;SDS011;2168;53.576;9.980;2023-04-06T01:33:42;0.20;;;0.20;;
4309;SDS011;2168;53.576;9.980;2023-04-06T01:36:07;0.30;;;0.30;;
4309;SDS011;2168;53.576;9.980;2023-04-06T01:38:33;0.20;;;0.20;;
4309;SDS011;2168;53.576;9.980;2023-04-06T01:40:58;0.27;;;0.27;;
4309;SDS011;2168;53.576;9.980;2023-04-06T01:43:23;0.23;;;0.23;;
4309;SDS011;2168;53.576;9.980;2023-04-06T01:45:48;0.20;;;0.20;;
4309;SDS011;2168;53.576;9.980;2023-04-06T01:48:14;0.20;;;0.20;;
4309;SDS011;2168;53.576;9.980;2023-04-06T01:50:39;0.20;;;0.20;;
4309;SDS011;2168;53.576;9.980;2023-04-06T01:53:04;0.30;;;0.30;;
4309;SDS011;2168;53.576;9.980;2023-04-06T01:55:29;0.20;;;0.20;;
4309;SDS011;2168;53.576;9.980;2023-04-06T01:57:55;0.20;;;0.20;;
4309;SDS011;2168;53.576;9.980;2023-04-06T02:00:20;0.20;;;0.20;;
4309;SDS011;2168;53.576;9.980;2023-04-06T02:02:45;0.20;;;0.20;;
4309;SDS011;2168;53.576;9.980;2023-04-06T02:05:11;0.20;;;0.20;;
4309;SDS011;2168;53.576;9.980;2023-04-06T02:07:36;0.20;;;0.20;;
4309;SDS011;2168;53.576;9.980;2023-04-06T02:10:02;0.20;;;0.20;;
4309;SDS011;2168;53.576;9.980;2023-04-06T02:12:27;0.20;;;0.20;;
4309;SDS011;2168;53.576;9.980;2023-04-06T02:14:52;0.20;;;0.20;;
4309;SDS011;2168;53.576;9.980;2023-04-06T02:17:17;0.20;;;0.20;;
4309;SDS011;2168;53.576;9.980;2023-04-06T02:19:43;0.20;;;0.20;;
4309;SDS011;2168;53.576;9.980;2023-04-06T02:22:09;0.20;;;0.20;;
4309;SDS011;2168;53.576;9.980;2023-04-06T02:24:34;0.10;;;0.10;;
4309;SDS011;2168;53.576;9.980;2023-04-06T02:26:59;0.17;;;0.17;;
4309;SDS011;2168;53.576;9.980;2023-04-06T02:29:25;0.20;;;0.20;;
4309;SDS011;2168;53.576;9.980;2023-04-06T02:31:50;0.20;;;0.20;;
4309;SDS011;2168;53.576;9.980;2023-04-06T02:34:16;0.20;;;0.20;;
4309;SDS011;2168;53.576;9.980;2023-04-06T02:36:43;0.20;;;0.20;;
4309;SDS011;2168;53.576;9.980;2023-04-06T02:39:08;0.20;;;0.20;;
4309;SDS011;2168;53.576;9.980;2023-04-06T02:41:34;0.20;;;0.20;;
4309;SDS011;2168;53.576;9.980;2023-04-06T02:43:59;0.10;;;0.10;;
4309;SDS011;2168;53.576;9.980;2023-04-06T02:46:24;0.10;;;0.10;;
4309;SDS011;2168;53.576;9.980;2023-04-06T02:48:50;0.20;;;0.20;;
4309;SDS011;2168;53.576;9.980;2023-04-06T02:51:15;0.20;;;0.20;;
4309;SDS011;2168;53.576;9.980;2023-04-06T02:53:40;0.10;;;0.10;;
4309;SDS011;2168;53.576;9.980;2023-04-06T02:56:06;0.20;;;0.20;;
4309;SDS011;2168;53.576;9.980;2023-04-06T02:58:31;0.20;;;0.20;;
4309;SDS011;2168;53.576;9.980;2023-04-06T03:00:57;0.20;;;0.20;;
4309;SDS011;2168;53.576;9.980;2023-04-06T03:03:22;0.20;;;0.20;;
4309;SDS011;2168;53.576;9.980;2023-04-06T03:05:48;0.20;;;0.20;;
4309;SDS011;2168;53.576;9.980;2023-04-06T03:08:13;0.20;;;0.20;;
4309;SDS011;2168;53.576;9.980;2023-04-06T03:10:38;0.10;;;0.10;;
4309;SDS011;2168;53.576;9.980;2023-04-06T03:13:03;0.20;;;0.20;;
4309;SDS011;2168;53.576;9.980;2023-04-06T03:15:28;0.20;;;0.20;;
4309;SDS011;2168;53.576;9.980;2023-04-06T03:17:54;0.20;;;0.20;;
4309;SDS011;2168;53.576;9.980;2023-04-06T03:20:19;0.10;;;0.10;;
4309;SDS011;2168;53.576;9.980;2023-04-06T03:22:45;0.20;;;0.20;;
4309;SDS011;2168;53.576;9.980;2023-04-06T03:25:10;0.20;;;0.20;;
4309;SDS011;2168;53.576;9.980;2023-04-06T03:27:35;0.10;;;0.10;;
4309;SDS011;2168;53.576;9.980;2023-04-06T03:30:01;0.10;;;0.10;;
4309;SDS011;2168;53.576;9.980;2023-04-06T03:32:26;0.10;;;0.10;;
4309;SDS011;2168;53.576;9.980;2023-04-06T03:34:51;0.10;;;0.10;;
4309;SDS011;2168;53.576;9.980;2023-04-06T03:37:16;0.10;;;0.10;;
4309;SDS011;2168;53.576;9.980;2023-04-06T03:39:42;0.10;;;0.10;;
4309;SDS011;2168;53.576;9.980;2023-04-06T03:42:07;0.10;;;0.10;;
4309;SDS011;2168;53.576;9.980;2023-04-06T03:44:32;0.10;;;0.10;;
4309;SDS011;2168;53.576;9.980;2023-04-06T03:46:57;0.20;;;0.20;;
4309;SDS011;2168;53.576;9.980;2023-04-06T03:49:23;0.10;;;0.10;;
4309;SDS011;2168;53.576;9.980;2023-04-06T03:51:48;0.17;;;0.17;;
4309;SDS011;2168;53.576;9.980;2023-04-06T03:54:13;0.10;;;0.10;;
4309;SDS011;2168;53.576;9.980;2023-04-06T03:56:38;0.20;;;0.20;;
4309;SDS011;2168;53.576;9.980;2023-04-06T03:59:03;0.20;;;0.20;;
4309;SDS011;2168;53.576;9.980;2023-04-06T04:01:29;0.20;;;0.20;;
4309;SDS011;2168;53.576;9.980;2023-04-06T04:03:54;0.10;;;0.10;;
4309;SDS011;2168;53.576;9.980;2023-04-06T04:06:20;0.10;;;0.10;;
4309;SDS011;2168;53.576;9.980;2023-04-06T04:08:45;0.10;;;0.10;;
4309;SDS011;2168;53.576;9.980;2023-04-06T04:11:10;0.10;;;0.10;;
4309;SDS011;2168;53.576;9.980;2023-04-06T04:13:35;0.10;;;0.10;;
4309;SDS011;2168;53.576;9.980;2023-04-06T04:16:01;0.20;;;0.20;;
4309;SDS011;2168;53.576;9.980;2023-04-06T04:18:26;0.10;;;0.10;;
4309;SDS011;2168;53.576;9.980;2023-04-06T04:20:51;0.10;;;0.10;;
4309;SDS011;2168;53.576;9.980;2023-04-06T04:23:17;0.20;;;0.20;;
4309;SDS011;2168;53.576;9.980;2023-04-06T04:25:43;0.10;;;0.10;;
4309;SDS011;2168;53.576;9.980;2023-04-06T04:28:08;0.10;;;0.10;;
4309;SDS011;2168;53.576;9.980;2023-04-06T04:30:33;0.10;;;0.10;;
4309;SDS011;2168;53.576;9.980;2023-04-06T04:32:58;0.10;;;0.10;;
4309;SDS011;2168;53.576;9.980;2023-04-06T04:35:23;0.10;;;0.10;;
4309;SDS011;2168;53.576;9.980;2023-04-06T04:37:49;0.10;;;0.10;;
4309;SDS011;2168;53.576;9.980;2023-04-06T04:40:14;0.10;;;0.10;;
4309;SDS011;2168;53.576;9.980;2023-04-06T04:42:40;0.10;;;0.10;;
4309;SDS011;2168;53.576;9.980;2023-04-06T04:45:06;0.10;;;0.10;;
4309;SDS011;2168;53.576;9.980;2023-04-06T04:47:31;0.10;;;0.10;;
4309;SDS011;2168;53.576;9.980;2023-04-06T04:49:56;0.10;;;0.10;;
4309;SDS011;2168;53.576;9.980;2023-04-06T04:52:22;0.00;;;0.00;;
4309;SDS011;2168;53.576;9.980;2023-04-06T04:54:47;0.10;;;0.10;;
4309;SDS011;2168;53.576;9.980;2023-04-06T04:57:12;0.10;;;0.10;;
4309;SDS011;2168;53.576;9.980;2023-04-06T04:59:38;0.10;;;0.10;;
4309;SDS011;2168;53.576;9.980;2023-04-06T05:02:03;0.10;;;0.10;;
4309;SDS011;2168;53.576;9.980;2023-04-06T05:04:28;0.10;;;0.10;;
4309;SDS011;2168;53.576;9.980;2023-04-06T05:07:03;3.03;;;0.97;;
4309;SDS011;2168;53.576;9.980;2023-04-06T05:09:31;10.93;;;5.43;;
4309;SDS011;2168;53.576;9.980;2023-04-06T05:11:58;8.83;;;5.53;;
4309;SDS011;2168;53.576;9.980;2023-04-06T05:14:23;6.53;;;5.53;;
4309;SDS011;2168;53.576;9.980;2023-04-06T05:16:50;6.23;;;5.30;;
4309;SDS011;2168;53.576;9.980;2023-04-06T05:19:15;7.43;;;5.37;;
4309;SDS011;2168;53.576;9.980;2023-04-06T05:21:40;11.37;;;5.30;;
4309;SDS011;2168;53.576;9.980;2023-04-06T05:24:06;7.27;;;5.33;;
4309;SDS011;2168;53.576;9.980;2023-04-06T05:26:31;6.60;;;5.27;;
4309;SDS011;2168;53.576;9.980;2023-04-06T05:28:57;7.70;;;5.57;;
4309;SDS011;2168;53.576;9.980;2023-04-06T05:31:22;8.37;;;4.87;;
4309;SDS011;2168;53.576;9.980;2023-04-06T05:33:47;12.63;;;5.53;;
4309;SDS011;2168;53.576;9.980;2023-04-06T05:36:13;6.93;;;4.80;;
4309;SDS011;2168;53.576;9.980;2023-04-06T05:38:38;6.13;;;4.80;;
4309;SDS011;2168;53.576;9.980;2023-04-06T05:41:03;5.80;;;4.70;;
4309;SDS011;2168;53.576;9.980;2023-04-06T05:43:28;9.00;;;5.47;;
4309;SDS011;2168;53.576;9.980;2023-04-06T05:45:54;5.60;;;4.73;;
4309;SDS011;2168;53.576;9.980;2023-04-06T05:48:19;5.47;;;4.60;;
4309;SDS011;2168;53.576;9.980;2023-04-06T05:50:48;12.13;;;5.20;;
4309;SDS011;2168;53.576;9.980;2023-04-06T05:53:13;6.93;;;5.00;;
4309;SDS011;2168;53.576;9.980;2023-04-06T05:55:38;12.40;;;5.10;;
4309;SDS011;2168;53.576;9.980;2023-04-06T05:58:04;10.50;;;5.20;;
4309;SDS011;2168;53.576;9.980;2023-04-06T06:00:29;8.33;;;5.23;;
4309;SDS011;2168;53.576;9.980;2023-04-06T06:02:55;6.50;;;5.10;;
4309;SDS011;2168;53.576;9.980;2023-04-06T06:05:20;12.73;;;6.03;;
4309;SDS011;2168;53.576;9.980;2023-04-06T06:07:45;12.40;;;5.70;;
4309;SDS011;2168;53.576;9.980;2023-04-06T06:10:10;6.50;;;5.10;;
4309;SDS011;2168;53.576;9.980;2023-04-06T06:12:36;0.10;;;0.10;;
4309;SDS011;2168;53.576;9.980;2023-04-06T06:15:01;0.10;;;0.10;;
4309;SDS011;2168;53.576;9.980;2023-04-06T06:17:26;0.10;;;0.10;;
4309;SDS011;2168;53.576;9.980;2023-04-06T06:19:51;0.10;;;0.10;;
4309;SDS011;2168;53.576;9.980;2023-04-06T06:22:17;0.10;;;0.10;;
4309;SDS011;2168;53.576;9.980;2023-04-06T06:24:42;9.40;;;4.57;;
4309;SDS011;2168;53.576;9.980;2023-04-06T06:27:07;7.67;;;5.50;;
4309;SDS011;2168;53.576;9.980;2023-04-06T06:29:32;6.33;;;5.50;;
4309;SDS011;2168;53.576;9.980;2023-04-06T06:31:58;9.30;;;5.57;;
4309;SDS011;2168;53.576;9.980;2023-04-06T06:34:23;10.77;;;5.57;;
4309;SDS011;2168;53.576;9.980;2023-04-06T06:36:48;7.93;;;5.37;;
4309;SDS011;2168;53.576;9.980;2023-04-06T06:39:13;9.10;;;5.67;;
4309;SDS011;2168;53.576;9.980;2023-04-06T06:41:39;6.27;;;5.67;;
4309;SDS011;2168;53.576;9.980;2023-04-06T06:44:05;9.40;;;5.87;;
4309;SDS011;2168;53.576;9.980;2023-04-06T06:46:30;13.20;;;5.60;;
4309;SDS011;2168;53.576;9.980;2023-04-06T06:48:55;20.57;;;7.00;;
4309;SDS011;2168;53.576;9.980;2023-04-06T06:51:20;7.33;;;5.80;;
4309;SDS011;2168;53.576;9.980;2023-04-06T06:53:46;10.00;;;5.90;;
4309;SDS011;2168;53.576;9.980;2023-04-06T06:56:11;9.73;;;5.90;;
4309;SDS011;2168;53.576;9.980;2023-04-06T06:58:37;10.80;;;6.03;;
4309;SDS011;2168;53.576;9.980;2023-04-06T07:01:02;8.00;;;5.50;;
4309;SDS011;2168;53.576;9.980;2023-04-06T07:03:29;6.10;;;5.50;;
4309;SDS011;2168;53.576;9.980;2023-04-06T07:05:55;9.53;;;5.43;;
4309;SDS011;2168;53.576;9.980;2023-04-06T07:08:21;11.80;;;5.27;;
4309;SDS011;2168;53.576;9.980;2023-04-06T07:10:46;8.70;;;5.47;;
4309;SDS011;2168;53.576;9.980;2023-04-06T07:13:12;7.00;;;5.30;;
4309;SDS011;2168;53.576;9.980;2023-04-06T07:15:39;8.57;;;4.80;;
4309;SDS011;2168;53.576;9.980;2023-04-06T07:18:04;5.93;;;5.07;;
4309;SDS011;2168;53.576;9.980;2023-04-06T07:20:30;6.17;;;5.20;;
4309;SDS011;2168;53.576;9.980;2023-04-06T07:22:55;7.80;;;4.93;;
4309;SDS011;2168;53.576;9.980;2023-04-06T07:25:20;11.73;;;5.23;;
4309;SDS011;2168;53.576;9.980;2023-04-06T07:27:45;9.17;;;5.60;;
4309;SDS011;2168;53.576;9.980;2023-04-06T07:30:11;7.37;;;5.23;;
4309;SDS011;2168;53.576;9.980;2023-04-06T07:32:36;7.33;;;5.03;;
4309;SDS011;2168;53.576;9.980;2023-04-06T07:35:02;6.80;;;5.73;;
4309;SDS011;2168;53.576;9.980;2023-04-06T07:37:27;12.87;;;5.77;;
4309;SDS011;2168;53.576;9.980;2023-04-06T07:39:52;7.90;;;5.70;;
4309;SDS011;2168;53.576;9.980;2023-04-06T07:42:17;15.33;;;5.50;;
4309;SDS011;2168;53.576;9.980;2023-04-06T07:44:43;6.43;;;4.83;;
4309;SDS011;2168;53.576;9.980;2023-04-06T07:47:08;8.40;;;5.10;;
4309;SDS011;2168;53.576;9.980;2023-04-06T07:49:33;7.80;;;4.97;;
4309;SDS011;2168;53.576;9.980;2023-04-06T07:51:58;11.87;;;4.33;;
4309;SDS011;2168;53.576;9.980;2023-04-06T07:54:24;8.53;;;4.93;;
4309;SDS011;2168;53.576;9.980;2023-04-06T07:56:49;9.20;;;4.80;;
4309;SDS011;2168;53.576;9.980;2023-04-06T07:59:14;11.53;;;4.27;;
4309;SDS011;2168;53.576;9.980;2023-04-06T08:01:40;6.60;;;4.63;;
4309;SDS011;2168;53.576;9.980;2023-04-06T08:04:05;7.50;;;5.10;;
4309;SDS011;2168;53.576;9.980;2023-04-06T08:06:30;5.23;;;4.73;;
4309;SDS011;2168;53.576;9.980;2023-04-06T08:08:56;5.83;;;4.80;;
4309;SDS011;2168;53.576;9.980;2023-04-06T08:11:21;7.67;;;5.13;;
4309;SDS011;2168;53.576;9.980;2023-04-06T08:13:46;5.27;;;4.80;;
4309;SDS011;2168;53.576;9.980;2023-04-06T08:16:11;7.77;;;4.53;;
4309;SDS011;2168;53.576;9.980;2023-04-06T08:18:37;7.07;;;4.57;;
4309;SDS011;2168;53.576;9.980;2023-04-06T08:21:02;8.30;;;5.33;;
4309;SDS011;2168;53.576;9.980;2023-04-06T08:23:27;8.70;;;5.33;;
4309;SDS011;2168;53.576;9.980;2023-04-06T08:25:53;6.33;;;4.67;;
4309;SDS011;2168;53.576;9.980;2023-04-06T08:28:20;5.00;;;4.60;;
4309;SDS011;2168;53.576;9.980;2023-04-06T08:30:46;8.67;;;5.17;;
4309;SDS011;2168;53.576;9.980;2023-04-06T08:33:11;7.40;;;4.70;;
4309;SDS011;2168;53.576;9.980;2023-04-06T08:35:37;6.90;;;5.40;;
4309;SDS011;2168;53.576;9.980;2023-04-06T08:38:02;6.87;;;5.30;;
4309;SDS011;2168;53.576;9.980;2023-04-06T08:40:27;9.90;;;5.30;;
4309;SDS011;2168;53.576;9.980;2023-04-06T08:42:54;7.43;;;5.37;;
4309;SDS011;2168;53.576;9.980;2023-04-06T08:45:19;5.87;;;4.97;;
4309;SDS011;2168;53.576;9.980;2023-04-06T08:47:46;14.23;;;5.67;;
4309;SDS011;2168;53.576;9.980;2023-04-06T08:50:11;7.90;;;5.30;;
4309;SDS011;2168;53.576;9.980;2023-04-06T08:52:37;8.73;;;6.07;;
4309;SDS011;2168;53.576;9.980;2023-04-06T08:55:03;6.37;;;5.77;;
4309;SDS011;2168;53.576;9.980;2023-04-06T08:57:28;9.40;;;5.60;;
4309;SDS011;2168;53.576;9.980;2023-04-06T08:59:53;8.30;;;6.10;;
4309;SDS011;2168;53.576;9.980;2023-04-06T09:02:20;6.43;;;5.20;;
4309;SDS011;2168;53.576;9.980;2023-04-06T09:04:45;10.03;;;5.50;;
4309;SDS011;2168;53.576;9.980;2023-04-06T09:07:12;9.40;;;6.23;;
4309;SDS011;2168;53.576;9.980;2023-04-06T09:09:37;9.10;;;5.33;;
4309;SDS011;2168;53.576;9.980;2023-04-06T09:12:08;6.30;;;5.67;;
4309;SDS011;2168;53.576;9.980;2023-04-06T09:14:37;8.70;;;6.07;;
4309;SDS011;2168;53.576;9.980;2023-04-06T09:17:03;6.93;;;5.50;;
4309;SDS011;2168;53.576;9.980;2023-04-06T09:19:28;5.97;;;4.83;;
4309;SDS011;2168;53.576;9.980;2023-04-06T09:22:03;5.23;;;4.73;;
4309;SDS011;2168;53.576;9.980;2023-04-06T09:24:38;8.33;;;5.10;;
4309;SDS011;2168;53.576;9.980;2023-04-06T09:27:04;8.70;;;5.17;;
4309;SDS011;2168;53.576;9.980;2023-04-06T09:29:29;9.30;;;5.23;;
4309;SDS011;2168;53.576;9.980;2023-04-06T09:32:04;11.33;;;5.20;;
4309;SDS011;2168;53.576;9.980;2023-04-06T09:34:30;8.53;;;4.60;;
4309;SDS011;2168;53.576;9.980;2023-04-06T09:36:55;9.70;;;5.50;;
4309;SDS011;2168;53.576;9.980;2023-04-06T09:39:21;0.90;;;0.90;;
4309;SDS011;2168;53.576;9.980;2023-04-06T09:41:52;0.70;;;0.70;;
4309;SDS011;2168;53.576;9.980;2023-04-06T09:44:19;0.80;;;0.80;;
4309;SDS011;2168;53.576;9.980;2023-04-06T09:46:45;0.80;;;0.80;;
4309;SDS011;2168;53.576;9.980;2023-04-06T09:49:11;0.80;;;0.80;;
4309;SDS011;2168;53.576;9.980;2023-04-06T09:51:37;0.90;;;0.90;;
4309;SDS011;2168;53.576;9.980;2023-04-06T09:54:03;0.80;;;0.80;;
4309;SDS011;2168;53.576;9.980;2023-04-06T09:59:05;0.90;;;0.90;;
4309;SDS011;2168;53.576;9.980;2023-04-06T10:01:32;0.90;;;0.90;;
4309;SDS011;2168;53.576;9.980;2023-04-06T10:04:03;1.00;;;1.00;;
4309;SDS011;2168;53.576;9.980;2023-04-06T10:06:31;1.10;;;1.10;;
4309;SDS011;2168;53.576;9.980;2023-04-06T10:08:58;1.00;;;1.00;;
4309;SDS011;2168;53.576;9.980;2023-04-06T10:11:23;1.30;;;1.30;;
4309;SDS011;2168;53.576;9.980;2023-04-06T10:13:49;1.50;;;1.50;;
4309;SDS011;2168;53.576;9.980;2023-04-06T10:16:15;1.20;;;1.20;;
4309;SDS011;2168;53.576;9.980;2023-04-06T10:18:42;1.37;;;1.37;;
4309;SDS011;2168;53.576;9.980;2023-04-06T10:21:19;1.20;;;1.20;;
4309;SDS011;2168;53.576;9.980;2023-04-06T10:23:49;1.20;;;1.20;;
4309;SDS011;2168;53.576;9.980;2023-04-06T10:26:16;1.20;;;1.20;;
4309;SDS011;2168;53.576;9.980;2023-04-06T10:28:43;1.20;;;1.20;;
4309;SDS011;2168;53.576;9.980;2023-04-06T10:31:09;1.03;;;1.03;;
4309;SDS011;2168;53.576;9.980;2023-04-06T10:33:34;1.10;;;1.10;;
4309;SDS011;2168;53.576;9.980;2023-04-06T10:36:11;1.30;;;1.30;;
4309;SDS011;2168;53.576;9.980;2023-04-06T10:38:37;1.30;;;1.30;;
4309;SDS011;2168;53.576;9.980;2023-04-06T10:41:03;1.10;;;1.10;;
4309;SDS011;2168;53.576;9.980;2023-04-06T10:43:32;1.30;;;1.30;;
4309;SDS011;2168;53.576;9.980;2023-04-06T10:45:59;1.30;;;1.30;;
4309;SDS011;2168;53.576;9.980;2023-04-06T10:48:25;1.40;;;1.40;;
4309;SDS011;2168;53.576;9.980;2023-04-06T10:50:52;1.60;;;1.60;;
4309;SDS011;2168;53.576;9.980;2023-04-06T10:53:24;1.10;;;1.10;;
4309;SDS011;2168;53.576;9.980;2023-04-06T10:55:50;1.20;;;1.20;;
4309;SDS011;2168;53.576;9.980;2023-04-06T10:58:16;1.30;;;1.30;;
4309;SDS011;2168;53.576;9.980;2023-04-06T11:00:44;1.23;;;1.23;;
4309;SDS011;2168;53.576;9.980;2023-04-06T11:03:10;1.30;;;1.30;;
4309;SDS011;2168;53.576;9.980;2023-04-06T11:05:35;1.00;;;1.00;;
4309;SDS011;2168;53.576;9.980;2023-04-06T11:08:00;1.10;;;1.10;;
4309;SDS011;2168;53.576;9.980;2023-04-06T11:10:26;1.30;;;1.30;;
4309;SDS011;2168;53.576;9.980;2023-04-06T11:12:54;1.30;;;1.30;;
4309;SDS011;2168;53.576;9.980;2023-04-06T11:15:19;1.13;;;1.13;;
4309;SDS011;2168;53.576;9.980;2023-04-06T11:17:45;1.30;;;1.30;;
4309;SDS011;2168;53.576;9.980;2023-04-06T11:20:11;1.23;;;1.23;;
4309;SDS011;2168;53.576;9.980;2023-04-06T11:22:36;1.10;;;1.10;;
4309;SDS011;2168;53.576;9.980;2023-04-06T11:25:08;1.10;;;1.10;;
4309;SDS011;2168;53.576;9.980;2023-04-06T11:27:33;1.30;;;1.30;;
4309;SDS011;2168;53.576;9.980;2023-04-06T11:29:59;1.30;;;1.30;;
4309;SDS011;2168;53.576;9.980;2023-04-06T11:32:25;1.40;;;1.40;;
4309;SDS011;2168;53.576;9.980;2023-04-06T11:34:50;1.53;;;1.53;;
4309;SDS011;2168;53.576;9.980;2023-04-06T11:37:15;1.70;;;1.70;;
4309;SDS011;2168;53.576;9.980;2023-04-06T11:39:43;1.50;;;1.50;;
4309;SDS011;2168;53.576;9.980;2023-04-06T11:42:08;1.60;;;1.60;;
4309;SDS011;2168;53.576;9.980;2023-04-06T11:44:43;1.70;;;1.70;;
4309;SDS011;2168;53.576;9.980;2023-04-06T11:47:11;1.70;;;1.70;;
4309;SDS011;2168;53.576;9.980;2023-04-06T11:49:37;1.70;;;1.70;;
4309;SDS011;2168;53.576;9.980;2023-04-06T11:52:02;1.80;;;1.80;;
4309;SDS011;2168;53.576;9.980;2023-04-06T11:54:34;1.80;;;1.80;;
4309;SDS011;2168;53.576;9.980;2023-04-06T11:57:00;2.00;;;2.00;;
4309;SDS011;2168;53.576;9.980;2023-04-06T11:59:26;1.80;;;1.80;;
4309;SDS011;2168;53.576;9.980;2023-04-06T12:01:52;1.70;;;1.70;;
4309;SDS011;2168;53.576;9.980;2023-04-06T12:04:18;2.33;;;2.33;;
4309;SDS011;2168;53.576;9.980;2023-04-06T12:06:43;1.80;;;1.80;;
4309;SDS011;2168;53.576;9.980;2023-04-06T12:09:08;1.70;;;1.70;;
4309;SDS011;2168;53.576;9.980;2023-04-06T12:11:33;1.87;;;1.87;;
4309;SDS011;2168;53.576;9.980;2023-04-06T12:13:59;2.00;;;2.00;;
4309;SDS011;2168;53.576;9.980;2023-04-06T12:16:26;1.83;;;1.83;;
4309;SDS011;2168;53.576;9.980;2023-04-06T12:18:51;2.00;;;2.00;;
4309;SDS011;2168;53.576;9.980;2023-04-06T12:21:16;2.27;;;2.27;;
4309;SDS011;2168;53.576;9.980;2023-04-06T12:23:42;2.00;;;2.00;;
4309;SDS011;2168;53.576;9.980;2023-04-06T12:26:07;1.90;;;1.90;;
4309;SDS011;2168;53.576;9.980;2023-04-06T12:28:32;2.20;;;2.20;;
4309;SDS011;2168;53.576;9.980;2023-04-06T12:30:57;1.90;;;1.90;;
4309;SDS011;2168;53.576;9.980;2023-04-06T12:33:22;2.07;;;2.07;;
4309;SDS011;2168;53.576;9.980;2023-04-06T12:35:48;2.33;;;2.33;;
4309;SDS011;2168;53.576;9.980;2023-04-06T12:38:13;2.30;;;2.30;;
4309;SDS011;2168;53.576;9.980;2023-04-06T12:40:38;2.07;;;2.07;;
4309;SDS011;2168;53.576;9.980;2023-04-06T12:43:04;2.33;;;2.33;;
4309;SDS011;2168;53.576;9.980;2023-04-06T12:45:30;2.20;;;2.20;;
4309;SDS011;2168;53.576;9.980;2023-04-06T12:47:55;2.33;;;2.33;;
4309;SDS011;2168;53.576;9.980;2023-04-06T12:50:21;2.07;;;2.07;;
4309;SDS011;2168;53.576;9.980;2023-04-06T12:52:46;2.27;;;2.27;;
4309;SDS011;2168;53.576;9.980;2023-04-06T12:55:12;2.50;;;2.50;;
4309;SDS011;2168;53.576;9.980;2023-04-06T12:57:37;2.37;;;2.37;;
4309;SDS011;2168;53.576;9.980;2023-04-06T13:00:02;1.80;;;1.80;;
4309;SDS011;2168;53.576;9.980;2023-04-06T13:02:28;2.37;;;2.37;;
4309;SDS011;2168;53.576;9.980;2023-04-06T13:04:53;2.40;;;2.40;;
4309;SDS011;2168;53.576;9.980;2023-04-06T13:07:18;2.30;;;2.30;;
4309;SDS011;2168;53.576;9.980;2023-04-06T13:09:43;2.53;;;2.53;;
4309;SDS011;2168;53.576;9.980;2023-04-06T13:12:09;2.70;;;2.70;;
4309;SDS011;2168;53.576;9.980;2023-04-06T13:14:34;2.63;;;2.63;;
4309;SDS011;2168;53.576;9.980;2023-04-06T13:17:00;2.53;;;2.53;;
4309;SDS011;2168;53.576;9.980;2023-04-06T13:19:25;2.70;;;2.70;;
4309;SDS011;2168;53.576;9.980;2023-04-06T13:21:51;2.63;;;2.63;;
4309;SDS011;2168;53.576;9.980;2023-04-06T13:24:16;2.33;;;2.33;;
4309;SDS011;2168;53.576;9.980;2023-04-06T13:26:42;2.60;;;2.60;;
4309;SDS011;2168;53.576;9.980;2023-04-06T13:29:07;2.73;;;2.73;;
4309;SDS011;2168;53.576;9.980;2023-04-06T13:31:32;2.60;;;2.60;;
4309;SDS011;2168;53.576;9.980;2023-04-06T13:33:57;2.53;;;2.53;;
4309;SDS011;2168;53.576;9.980;2023-04-06T13:36:23;2.80;;;2.80;;
4309;SDS011;2168;53.576;9.980;2023-04-06T13:38:48;2.10;;;2.10;;
4309;SDS011;2168;53.576;9.980;2023-04-06T13:41:18;2.30;;;2.30;;
4309;SDS011;2168;53.576;9.980;2023-04-06T13:43:43;2.77;;;2.77;;
4309;SDS011;2168;53.576;9.980;2023-04-06T13:46:08;2.50;;;2.50;;
4309;SDS011;2168;53.576;9.980;2023-04-06T13:48:33;2.70;;;2.70;;
4309;SDS011;2168;53.576;9.980;2023-04-06T13:51:07;2.30;;;2.30;;
4309;SDS011;2168;53.576;9.980;2023-04-06T13:53:32;2.67;;;2.67;;
4309;SDS011;2168;53.576;9.980;2023-04-06T13:55:57;2.50;;;2.50;;
4309;SDS011;2168;53.576;9.980;2023-04-06T13:58:22;2.40;;;2.40;;
4309;SDS011;2168;53.576;9.980;2023-04-06T14:00:48;2.63;;;2.63;;
4309;SDS011;2168;53.576;9.980;2023-04-06T14:03:13;2.33;;;2.33;;
4309;SDS011;2168;53.576;9.980;2023-04-06T14:05:39;2.27;;;2.27;;
4309;SDS011;2168;53.576;9.980;2023-04-06T14:08:04;2.70;;;2.70;;
4309;SDS011;2168;53.576;9.980;2023-04-06T14:10:29;2.30;;;2.30;;
4309;SDS011;2168;53.576;9.980;2023-04-06T14:12:55;2.50;;;2.50;;
4309;SDS011;2168;53.576;9.980;2023-04-06T14:15:21;2.10;;;2.10;;
4309;SDS011;2168;53.576;9.980;2023-04-06T14:17:47;2.50;;;2.50;;
4309;SDS011;2168;53.576;9.980;2023-04-06T14:20:12;2.63;;;2.63;;
4309;SDS011;2168;53.576;9.980;2023-04-06T14:22:40;3.13;;;3.13;;
4309;SDS011;2168;53.576;9.980;2023-04-06T14:25:06;2.70;;;2.70;;
4309;SDS011;2168;53.576;9.980;2023-04-06T14:27:31;2.77;;;2.77;;
4309;SDS011;2168;53.576;9.980;2023-04-06T14:29:57;3.00;;;3.00;;
4309;SDS011;2168;53.576;9.980;2023-04-06T14:32:22;2.93;;;2.93;;
4309;SDS011;2168;53.576;9.980;2023-04-06T14:34:47;2.57;;;2.57;;
4309;SDS011;2168;53.576;9.980;2023-04-06T14:37:12;2.77;;;2.77;;
4309;SDS011;2168;53.576;9.980;2023-04-06T14:39:37;2.70;;;2.70;;
4309;SDS011;2168;53.576;9.980;2023-04-06T14:42:03;2.97;;;2.97;;
4309;SDS011;2168;53.576;9.980;2023-04-06T14:44:28;2.60;;;2.60;;
4309;SDS011;2168;53.576;9.980;2023-04-06T14:46:53;2.63;;;2.63;;
4309;SDS011;2168;53.576;9.980;2023-04-06T14:49:18;2.87;;;2.87;;
4309;SDS011;2168;53.576;9.980;2023-04-06T14:51:43;2.93;;;2.93;;
4309;SDS011;2168;53.576;9.980;2023-04-06T14:54:08;2.70;;;2.70;;
4309;SDS011;2168;53.576;9.980;2023-04-06T14:56:34;2.67;;;2.67;;
4309;SDS011;2168;53.576;9.980;2023-04-06T14:58:59;2.40;;;2.40;;
4309;SDS011;2168;53.576;9.980;2023-04-06T15:01:28;2.60;;;2.60;;
4309;SDS011;2168;53.576;9.980;2023-04-06T15:03:53;2.73;;;2.73;;
4309;SDS011;2168;53.576;9.980;2023-04-06T15:06:18;2.93;;;2.93;;
4309;SDS011;2168;53.576;9.980;2023-04-06T15:08:45;2.87;;;2.87;;